createdAt,value
2023-02-10T00:00:39.825Z,29.37
2023-02-10T00:04:42.648Z,30.97
2023-02-10T00:08:48.579Z,35.53
2023-02-10T00:12:53.767Z,34.43
2023-02-10T00:16:57.957Z,28.07
2023-02-10T00:21:07.969Z,33.83
2023-02-10T00:25:10.741Z,28.80
2023-02-10T00:29:15.048Z,34.50
2023-02-10T00:33:18.975Z,35.17
2023-02-10T00:37:21.797Z,36.57
2023-02-10T00:41:26.349Z,32.57
2023-02-10T00:45:30.523Z,32.17
2023-02-10T00:49:33.396Z,40.07
2023-02-10T00:53:36.717Z,41.00
2023-02-10T00:57:39.632Z,34.77
2023-02-10T01:01:43.984Z,40.03
2023-02-10T01:05:47.302Z,31.27
2023-02-10T01:09:52.160Z,37.53
2023-02-10T01:13:54.973Z,33.67
2023-02-10T01:17:59.395Z,33.30
2023-02-10T01:22:02.271Z,32.47
2023-02-10T01:26:05.664Z,35.83
2023-02-10T01:30:09.459Z,31.13
2023-02-10T01:34:13.689Z,29.30
2023-02-10T01:38:16.563Z,30.43
2023-02-10T01:42:19.398Z,29.33
2023-02-10T01:46:22.426Z,29.70
2023-02-10T01:50:31.795Z,27.67
2023-02-10T01:54:37.512Z,26.50
2023-02-10T01:58:42.418Z,27.53
2023-02-10T02:02:46.400Z,26.27
2023-02-10T02:06:52.320Z,28.33
2023-02-10T02:11:05.438Z,27.47
2023-02-10T02:15:16.740Z,28.13
2023-02-10T02:20:16.852Z,29.13
2023-02-10T02:24:37.482Z,24.30
2023-02-10T02:28:50.657Z,24.83
2023-02-10T02:32:59.345Z,27.43
2023-02-10T02:37:06.661Z,25.13
2023-02-10T02:41:10.045Z,26.33
2023-02-10T02:45:16.534Z,24.67
2023-02-10T02:49:29.021Z,28.23
2023-02-10T02:53:40.261Z,25.53
2023-02-10T02:57:49.806Z,27.00
2023-02-10T03:01:57.821Z,26.63
2023-02-10T03:06:02.056Z,28.13
2023-02-10T03:10:06.074Z,31.37
2023-02-10T03:14:08.968Z,30.90
2023-02-10T03:18:11.758Z,28.57
2023-02-10T03:22:15.881Z,37.03
2023-02-10T03:26:18.677Z,35.63
2023-02-10T03:30:22.942Z,41.10
2023-02-10T03:34:25.823Z,35.83
2023-02-10T03:38:30.808Z,49.97
2023-02-10T03:42:33.624Z,38.47
2023-02-10T03:46:37.720Z,40.20
2023-02-10T03:50:41.419Z,34.03
2023-02-10T03:54:45.813Z,40.40
2023-02-10T03:58:48.718Z,44.57
2023-02-10T04:02:51.541Z,38.17
2023-02-10T04:06:54.350Z,40.77
2023-02-10T04:10:58.582Z,46.87
2023-02-10T04:15:01.525Z,47.30
2023-02-10T04:19:04.566Z,44.20
2023-02-10T04:23:07.471Z,50.17
2023-02-10T04:27:11.642Z,43.57
2023-02-10T04:31:14.590Z,49.53
2023-02-10T04:35:17.588Z,51.90
2023-02-10T04:39:20.470Z,49.90
2023-02-10T04:43:24.927Z,50.80
2023-02-10T04:47:29.457Z,63.83
2023-02-10T04:51:32.345Z,52.70
2023-02-10T04:55:35.831Z,56.70
2023-02-10T04:59:40.154Z,68.03
2023-02-10T05:03:43.042Z,59.40
2023-02-10T05:07:46.084Z,47.90
2023-02-10T05:11:48.951Z,51.43
2023-02-10T05:15:53.179Z,61.97
2023-02-10T05:19:55.959Z,49.90
2023-02-10T05:23:59.698Z,47.43
2023-02-10T05:28:03.276Z,64.30
2023-02-10T05:32:07.625Z,47.90
2023-02-10T05:36:10.619Z,44.97
2023-02-10T05:40:13.550Z,63.53
2023-02-10T05:44:16.454Z,54.67
2023-02-10T05:48:20.744Z,47.90
2023-02-10T05:52:23.551Z,51.63
2023-02-10T05:56:26.642Z,57.40
2023-02-10T06:00:29.448Z,53.80
2023-02-10T06:04:34.158Z,52.60
2023-02-10T06:08:37.038Z,47.40
2023-02-10T06:12:39.902Z,54.73
2023-02-10T06:16:42.851Z,47.53
2023-02-10T06:20:49.122Z,61.23
2023-02-10T06:24:51.929Z,51.00
2023-02-10T06:28:54.753Z,51.87
2023-02-10T06:32:57.577Z,43.87
2023-02-10T06:37:01.751Z,50.33
2023-02-10T06:41:05.121Z,52.60
2023-02-10T06:45:09.769Z,48.37
2023-02-10T06:49:12.581Z,52.70
2023-02-10T06:53:16.827Z,48.93
2023-02-10T06:57:19.700Z,47.90
2023-02-10T07:01:22.579Z,44.10
2023-02-10T07:05:26.031Z,59.77
2023-02-10T07:09:30.416Z,51.00
2023-02-10T07:13:33.244Z,42.97
2023-02-10T07:17:37.487Z,42.20
2023-02-10T07:21:40.314Z,49.67
2023-02-10T07:25:44.539Z,43.00
2023-02-10T07:29:48.126Z,41.73
2023-02-10T07:33:50.937Z,45.00
2023-02-10T07:37:53.775Z,42.10
2023-02-10T07:41:57.946Z,43.07
2023-02-10T07:46:10.629Z,47.40
2023-02-10T07:50:13.483Z,39.60
2023-02-10T07:54:16.388Z,42.93
2023-02-10T07:58:20.610Z,39.73
2023-02-10T08:02:23.396Z,46.80
2023-02-10T08:06:27.916Z,45.20
2023-02-10T08:10:30.752Z,45.80
2023-02-10T08:14:35.626Z,48.67
2023-02-10T08:18:38.481Z,45.00
2023-02-10T08:22:41.462Z,46.50
2023-02-10T08:26:44.848Z,50.50
2023-02-10T08:30:49.476Z,49.93
2023-02-10T08:34:54.470Z,50.50
2023-02-10T08:38:59.122Z,54.43
2023-02-10T08:43:02.271Z,52.43
2023-02-10T08:47:07.922Z,56.33
2023-02-10T08:51:14.074Z,53.47
2023-02-10T08:55:16.937Z,55.83
2023-02-10T08:59:19.766Z,52.10
2023-02-10T09:03:24.810Z,52.20
2023-02-10T09:07:27.665Z,50.63
2023-02-10T09:11:30.538Z,49.60
2023-02-10T09:15:33.353Z,45.70
2023-02-10T09:19:37.907Z,44.40
2023-02-10T09:23:40.843Z,44.37
2023-02-10T09:27:43.677Z,44.47
2023-02-10T09:31:46.718Z,44.37
2023-02-10T09:35:51.203Z,44.53
2023-02-10T09:39:54.187Z,44.97
2023-02-10T09:44:11.072Z,43.07
2023-02-10T09:48:36.157Z,42.33
2023-02-10T09:52:55.204Z,42.00
2023-02-10T09:56:58.318Z,40.63
2023-02-10T10:01:06.070Z,36.20
2023-02-10T10:05:18.303Z,39.50
2023-02-10T10:09:34.795Z,38.17
2023-02-10T10:13:37.709Z,39.50
2023-02-10T10:17:56.936Z,36.00
2023-02-10T10:22:14.162Z,34.33
2023-02-10T10:26:37.853Z,35.30
2023-02-10T10:30:47.214Z,34.50
2023-02-10T10:34:53.793Z,30.30
2023-02-10T10:39:02.102Z,34.83
2023-02-10T10:43:06.588Z,31.27
2023-02-10T10:47:16.004Z,31.07
2023-02-10T10:51:19.541Z,28.83
2023-02-10T10:55:31.733Z,30.30
2023-02-10T10:59:43.018Z,30.47
2023-02-10T11:03:45.962Z,28.17
2023-02-10T11:07:50.192Z,24.83
2023-02-10T11:11:55.290Z,28.20
2023-02-10T11:16:06.922Z,27.00
2023-02-10T11:20:24.653Z,27.47
2023-02-10T11:24:29.711Z,28.07
2023-02-10T11:28:34.047Z,26.00
2023-02-10T11:32:39.673Z,25.23
2023-02-10T11:36:45.525Z,27.00
2023-02-10T11:40:53.726Z,26.37
2023-02-10T11:44:58.805Z,26.60
2023-02-10T11:49:06.144Z,25.13
2023-02-10T11:53:20.730Z,25.83
2023-02-10T11:57:50.324Z,26.50
2023-02-10T12:01:56.591Z,28.70
2023-02-10T12:06:09.727Z,24.27
2023-02-10T12:10:21.362Z,25.63
2023-02-10T12:14:49.353Z,28.43
2023-02-10T12:19:03.688Z,27.40
2023-02-10T12:23:39.035Z,25.77
2023-02-10T12:27:51.733Z,26.20
2023-02-10T12:32:04.796Z,25.70
2023-02-10T12:36:16.516Z,26.17
2023-02-10T12:40:50.300Z,26.87
2023-02-10T12:45:01.222Z,27.20
2023-02-10T12:49:19.569Z,26.33
2023-02-10T12:53:27.236Z,28.93
2023-02-10T12:57:40.580Z,25.93
2023-02-10T13:01:48.411Z,26.37
2023-02-10T13:05:57.369Z,26.77
2023-02-10T13:10:10.126Z,27.77
2023-02-10T13:14:18.121Z,25.27
2023-02-10T13:18:23.030Z,25.77
2023-02-10T13:22:42.140Z,24.63
2023-02-10T13:26:57.743Z,26.83
2023-02-10T13:31:14.196Z,25.77
2023-02-10T13:35:21.515Z,24.90
2023-02-10T13:39:29.769Z,26.30
2023-02-10T13:43:35.054Z,25.03
2023-02-10T13:47:43.321Z,24.73
2023-02-10T13:51:46.998Z,25.87
2023-02-10T13:55:49.842Z,26.10
2023-02-10T13:59:52.662Z,26.23
2023-02-10T14:03:58.424Z,25.97
2023-02-10T14:08:01.440Z,27.33
2023-02-10T14:12:07.421Z,24.83
2023-02-10T14:16:31.499Z,26.60
2023-02-10T14:20:39.171Z,26.80
2023-02-10T14:24:50.883Z,27.03
2023-02-10T14:28:56.933Z,28.17
2023-02-10T14:33:00.467Z,25.23
2023-02-10T14:37:16.960Z,27.07
2023-02-10T14:41:21.396Z,26.00
2023-02-10T14:45:27.230Z,27.90
2023-02-10T14:49:33.989Z,26.47
2023-02-10T14:53:42.242Z,28.60
2023-02-10T14:57:46.138Z,27.77
2023-02-10T15:01:49.047Z,28.40
2023-02-10T15:05:56.220Z,25.80
2023-02-10T15:10:06.959Z,26.97
2023-02-10T15:14:16.705Z,27.87
2023-02-10T15:18:22.398Z,29.30
2023-02-10T15:22:36.114Z,27.43
2023-02-10T15:26:41.733Z,32.00
2023-02-10T15:30:58.289Z,30.50
2023-02-10T15:35:07.714Z,30.73
2023-02-10T15:39:22.266Z,28.63
2023-02-10T15:43:29.162Z,25.40
2023-02-10T15:47:47.222Z,27.53
2023-02-10T15:51:53.236Z,24.90
2023-02-10T15:55:56.645Z,23.80
2023-02-10T16:00:01.059Z,24.80
2023-02-10T16:04:05.991Z,24.73
2023-02-10T16:08:20.714Z,23.33
2023-02-10T16:12:25.448Z,24.53
2023-02-10T16:16:30.011Z,26.67
2023-02-10T16:20:34.603Z,24.13
2023-02-10T16:24:38.220Z,23.67
2023-02-10T16:28:41.211Z,23.30
2023-02-10T16:32:46.136Z,20.23
2023-02-10T16:36:49.105Z,20.23
2023-02-10T16:40:52.165Z,19.87
2023-02-10T16:44:55.099Z,19.97
2023-02-10T16:48:59.422Z,23.97
2023-02-10T16:53:04.764Z,28.53
2023-02-10T16:57:08.729Z,32.47
2023-02-10T17:01:11.657Z,35.30
2023-02-10T17:05:17.246Z,39.67
2023-02-10T17:09:22.031Z,36.70
2023-02-10T17:13:24.917Z,37.87
2023-02-10T17:17:27.978Z,41.40
2023-02-10T17:21:34.900Z,41.07
2023-02-10T17:26:05.173Z,38.93
2023-02-10T17:30:09.365Z,42.37
2023-02-10T17:34:14.063Z,39.60
2023-02-10T17:38:33.267Z,42.37
2023-02-10T17:42:36.302Z,40.43
2023-02-10T17:46:39.352Z,40.97
2023-02-10T17:50:42.320Z,40.43
2023-02-10T17:54:46.742Z,44.43
2023-02-10T17:58:50.431Z,39.17
2023-02-10T18:02:54.059Z,40.73
2023-02-10T18:06:57.341Z,37.30
2023-02-10T18:11:01.502Z,38.83
2023-02-10T18:15:05.060Z,38.77
2023-02-10T18:19:08.838Z,40.27
2023-02-10T18:23:12.357Z,38.57
2023-02-10T18:27:16.963Z,33.53
2023-02-10T18:31:20.938Z,36.90
2023-02-10T18:35:24.167Z,33.10
2023-02-10T18:39:27.146Z,31.70
2023-02-10T18:43:32.158Z,34.93
2023-02-10T18:47:35.312Z,36.00
2023-02-10T18:51:38.267Z,34.57
2023-02-10T18:55:44.498Z,33.03
2023-02-10T18:59:48.749Z,37.97
2023-02-10T19:03:53.546Z,34.47
2023-02-10T19:08:02.475Z,38.80
2023-02-10T19:12:05.590Z,36.93
2023-02-10T19:16:12.662Z,34.77
2023-02-10T19:20:17.219Z,35.90
2023-02-10T19:24:20.470Z,34.47
2023-02-10T19:28:23.683Z,35.63
2023-02-10T19:32:28.067Z,36.30
2023-02-10T19:36:31.259Z,36.60
2023-02-10T19:40:35.008Z,33.97
2023-02-10T19:44:38.167Z,32.97
2023-02-10T19:48:44.731Z,35.23
2023-02-10T19:52:47.827Z,35.07
2023-02-10T19:56:50.897Z,34.00
2023-02-10T20:01:00.332Z,34.40
2023-02-10T20:05:05.095Z,38.13
2023-02-10T20:09:09.642Z,37.77
2023-02-10T20:13:15.999Z,35.07
2023-02-10T20:17:23.952Z,37.23
2023-02-10T20:21:29.538Z,36.30
2023-02-10T20:25:32.652Z,36.23
2023-02-10T20:29:36.592Z,39.03
2023-02-10T20:33:39.557Z,36.83
2023-02-10T20:37:44.547Z,38.23
2023-02-10T20:41:47.767Z,37.63
2023-02-10T20:45:50.944Z,36.30
2023-02-10T20:49:54.048Z,39.33
2023-02-10T20:53:58.530Z,39.90
2023-02-10T20:58:01.560Z,39.47
2023-02-10T21:02:05.406Z,40.60
2023-02-10T21:06:11.927Z,40.07
2023-02-10T21:10:20.127Z,39.80
2023-02-10T21:14:23.979Z,42.67
2023-02-10T21:18:27.380Z,40.10
2023-02-10T21:22:32.854Z,41.53
2023-02-10T21:26:38.065Z,40.17
2023-02-10T21:30:46.607Z,40.80
2023-02-10T21:34:50.701Z,38.13
2023-02-10T21:38:55.757Z,40.30
2023-02-10T21:43:00.149Z,38.97
2023-02-10T21:47:06.037Z,43.03
2023-02-10T21:51:09.057Z,43.00
2023-02-10T21:55:12.238Z,41.37
2023-02-10T21:59:22.364Z,41.63
2023-02-10T22:03:33.580Z,40.73
2023-02-10T22:07:39.711Z,41.77
2023-02-10T22:11:42.550Z,42.17
2023-02-10T22:15:53.454Z,41.40
2023-02-10T22:19:56.438Z,42.23
2023-02-10T22:23:59.732Z,42.13
2023-02-10T22:28:03.121Z,44.07
2023-02-10T22:32:07.491Z,40.97
2023-02-10T22:36:13.031Z,46.33
2023-02-10T22:40:17.692Z,44.33
2023-02-10T22:44:20.605Z,44.00
2023-02-10T22:48:24.924Z,46.20
2023-02-10T22:52:28.110Z,45.40
2023-02-10T22:56:33.505Z,45.70
2023-02-10T23:00:40.370Z,43.77
2023-02-10T23:04:45.598Z,45.63
2023-02-10T23:08:49.023Z,44.57
2023-02-10T23:12:52.081Z,43.23
2023-02-10T23:16:57.024Z,44.83
2023-02-10T23:21:01.582Z,44.03
2023-02-10T23:25:05.529Z,43.57
2023-02-10T23:29:11.622Z,42.27
2023-02-10T23:33:14.781Z,41.13
2023-02-10T23:37:19.475Z,42.90
2023-02-10T23:41:23.031Z,42.33
2023-02-10T23:45:26.192Z,41.33
2023-02-10T23:49:30.176Z,39.37
2023-02-10T23:53:36.647Z,41.30
2023-02-10T23:57:45.971Z,41.07
